Time;durP1;ratioP1;P1;durP2;ratioP2;P2;SDS_P1;SDS_P2;PMS_P1;PMS_P2;Temp;Humidity;BMP_temperature;BMP_pressure;BME280_temperature;BME280_humidity;BME280_pressure;Samples;Min_cycle;Max_cycle;Signal;HPM_P1;HPM_P2
2023/02/09 00:01:14;;;;;;;25.73;15.03;;;-5.20;99.90;;;;;;5054267;28;20187;-84
2023/02/09 00:03:40;;;;;;;20.13;11.57;;;-6.10;99.90;;;;;;5054291;28;20694;-84
2023/02/09 00:06:08;;;;;;;27.77;16.20;;;-4.80;99.90;;;;;;5036530;28;20623;-84
2023/02/09 00:08:35;;;;;;;23.83;14.10;;;-5.80;99.90;;;;;;5053190;28;20186;-84
2023/02/09 00:11:06;;;;;;;21.80;15.37;;;-5.00;99.90;;;;;;5052496;28;20667;-83
2023/02/09 00:13:31;;;;;;;23.93;12.10;;;-7.20;99.90;;;;;;5035953;28;20296;-85
2023/02/09 00:16:02;;;;;;;17.93;10.97;;;-4.80;99.90;;;;;;5054316;28;20254;-85
2023/02/09 00:18:30;;;;;;;13.93;10.63;;;-5.90;99.90;;;;;;5052615;28;20206;-85
2023/02/09 00:21:10;;;;;;;23.27;9.97;;;-7.40;99.90;;;;;;5052763;28;20273;-85
2023/02/09 00:23:38;;;;;;;25.70;13.67;;;-6.60;99.90;;;;;;5035888;28;20283;-85
2023/02/09 00:26:08;;;;;;;25.60;13.67;;;-7.60;99.90;;;;;;5052808;28;20669;-86
2023/02/09 00:28:34;;;;;;;33.93;15.73;;;-5.90;99.90;;;;;;5053537;28;20197;-86
2023/02/09 00:31:08;;;;;;;23.60;14.93;;;-5.20;99.90;;;;;;5053849;28;20194;-86
2023/02/09 00:33:34;;;;;;;29.30;15.27;;;-6.70;99.90;;;;;;5053342;28;20647;-83
2023/02/09 00:36:03;;;;;;;16.67;11.33;;;-6.60;99.90;;;;;;5049820;28;20186;-84
2023/02/09 00:38:29;;;;;;;22.43;12.23;;;-5.60;99.90;;;;;;5051582;28;20210;-84
2023/02/09 00:40:54;;;;;;;20.97;8.77;;;-7.00;99.90;;;;;;5052387;28;20195;-86
2023/02/09 00:43:20;;;;;;;19.57;11.43;;;-5.50;99.90;;;;;;5052077;28;20194;-84
2023/02/09 00:45:46;;;;;;;23.43;14.50;;;-5.30;99.90;;;;;;5052471;28;20178;-83
2023/02/09 00:48:11;;;;;;;23.33;12.40;;;-5.30;99.90;;;;;;5036224;28;20188;-85
2023/02/09 00:50:37;;;;;;;9.80;7.23;;;-6.60;99.90;;;;;;5051723;28;20184;-83
2023/02/09 00:53:03;;;;;;;27.20;15.50;;;-7.70;99.90;;;;;;5051803;28;20319;-85
2023/02/09 00:55:28;;;;;;;15.43;12.27;;;-6.20;99.90;;;;;;5035362;28;20664;-84
2023/02/09 00:57:54;;;;;;;18.60;11.50;;;-7.70;99.90;;;;;;5052260;28;20682;-85
2023/02/09 01:00:20;;;;;;;29.90;13.10;;;-5.90;99.90;;;;;;5052120;28;20184;-84
2023/02/09 01:02:46;;;;;;;22.90;12.67;;;-7.70;99.90;;;;;;5052247;28;20218;-84
2023/02/09 01:05:11;;;;;;;17.20;12.77;;;-5.60;99.90;;;;;;5053415;28;20200;-83
2023/02/09 01:07:37;;;;;;;11.63;9.93;;;-7.80;99.90;;;;;;5051318;28;20196;-84
2023/02/09 01:10:04;;;;;;;20.50;12.43;;;-5.50;99.90;;;;;;5051739;28;20210;-83
2023/02/09 01:12:30;;;;;;;19.40;15.20;;;-7.80;99.90;;;;;;5051649;28;20191;-86
2023/02/09 01:14:56;;;;;;;12.13;10.10;;;-6.30;99.90;;;;;;5035440;28;20200;-84
2023/02/09 01:17:21;;;;;;;36.83;12.20;;;-6.30;99.90;;;;;;5050194;28;20659;-84
2023/02/09 01:19:52;;;;;;;16.57;8.07;;;-7.90;99.90;;;;;;5034748;28;20258;-83
2023/02/09 01:22:17;;;;;;;22.37;8.33;;;-7.90;99.90;;;;;;5051426;28;20197;-83
2023/02/09 01:24:43;;;;;;;38.23;10.97;;;-7.90;99.90;;;;;;5051693;28;20549;-84
2023/02/09 01:27:09;;;;;;;9.70;8.73;;;-5.60;99.90;;;;;;5032002;28;20187;-84
2023/02/09 01:29:34;;;;;;;10.03;7.97;;;-6.70;99.90;;;;;;5040726;28;20675;-84
2023/02/09 01:32:00;;;;;;;35.07;11.63;;;-5.80;99.90;;;;;;5035341;28;20178;-84
2023/02/09 01:34:26;;;;;;;12.63;9.77;;;-5.10;99.90;;;;;;5034065;28;20254;-84
2023/02/09 01:36:51;;;;;;;15.37;9.83;;;-8.00;99.90;;;;;;5051433;28;20249;-84
2023/02/09 01:39:17;;;;;;;11.77;10.70;;;-6.30;99.90;;;;;;5034940;28;20275;-84
2023/02/09 01:41:43;;;;;;;12.90;9.47;;;-8.00;99.90;;;;;;5051335;28;20192;-84
2023/02/09 01:44:29;;;;;;;24.73;11.07;;;-8.00;99.90;;;;;;5052958;28;20185;-84
2023/02/09 01:46:54;;;;;;;25.20;10.03;;;-6.50;99.90;;;;;;5001648;28;20190;-84
2023/02/09 01:49:26;;;;;;;17.70;11.73;;;-6.60;99.90;;;;;;5052024;28;20684;-84
2023/02/09 01:51:57;;;;;;;16.97;7.23;;;-7.10;99.90;;;;;;5050337;28;20663;-84
2023/02/09 01:54:51;;;;;;;9.70;7.27;;;-7.80;99.90;;;;;;5052973;28;20190;-85
2023/02/09 01:57:21;;;;;;;19.47;9.13;;;-8.30;99.90;;;;;;5038988;28;20251;-84
2023/02/09 01:59:54;;;;;;;15.43;9.23;;;-6.30;99.90;;;;;;5050362;28;20203;-84
2023/02/09 02:02:21;;;;;;;8.47;7.40;;;-6.60;99.90;;;;;;5052794;28;20259;-85
2023/02/09 02:04:46;;;;;;;11.33;9.97;;;-5.90;99.90;;;;;;5051085;28;20194;-84
2023/02/09 02:07:41;;;;;;;29.07;8.97;;;-6.30;99.90;;;;;;5052641;28;20247;-84
2023/02/09 02:10:07;;;;;;;17.77;9.23;;;-8.00;99.90;;;;;;5032611;28;20202;-85
2023/02/09 02:12:34;;;;;;;12.47;9.27;;;-8.00;99.90;;;;;;5052362;28;20179;-85
2023/02/09 02:15:00;;;;;;;7.80;7.30;;;-8.20;99.90;;;;;;5051582;28;20182;-84
2023/02/09 02:17:48;;;;;;;12.20;7.43;;;-8.10;99.90;;;;;;5051366;28;20210;-85
2023/02/09 02:20:38;;;;;;;16.37;8.97;;;-8.20;99.90;;;;;;5051969;28;20556;-84
2023/02/09 02:23:54;;;;;;;16.73;6.73;;;-8.20;99.90;;;;;;5051203;28;20247;-84
2023/02/09 02:27:00;;;;;;;27.77;11.67;;;-8.20;99.90;;;;;;5034197;28;20286;-84
2023/02/09 02:29:25;;;;;;;7.67;6.93;;;-8.30;99.90;;;;;;5051011;28;20186;-84
2023/02/09 02:32:39;;;;;;;12.60;9.73;;;-7.00;99.90;;;;;;5047870;28;20193;-86
2023/02/09 02:35:11;;;;;;;23.57;9.97;;;-8.20;99.90;;;;;;5049933;28;20185;-85
2023/02/09 02:37:43;;;;;;;18.23;12.77;;;-5.90;99.90;;;;;;5050806;28;20201;-84
2023/02/09 02:40:21;;;;;;;13.90;10.77;;;-6.20;99.90;;;;;;5054129;28;20180;-85
2023/02/09 02:42:56;;;;;;;25.77;12.10;;;-8.20;99.90;;;;;;5051070;28;20689;-84
2023/02/09 02:45:34;;;;;;;20.80;11.73;;;-8.10;99.90;;;;;;5049753;28;20284;-84
2023/02/09 02:48:03;;;;;;;15.53;8.57;;;-8.10;99.90;;;;;;5061151;28;20338;-84
2023/02/09 02:50:31;;;;;;;14.27;8.03;;;-8.10;99.90;;;;;;5059434;28;20181;-84
2023/02/09 02:53:00;;;;;;;9.30;5.60;;;-6.40;99.90;;;;;;5063405;28;20183;-84
2023/02/09 02:55:28;;;;;;;6.87;5.53;;;-8.10;99.90;;;;;;5060989;28;20192;-84
2023/02/09 02:57:57;;;;;;;5.83;5.30;;;-6.40;99.90;;;;;;5064000;28;20344;-84
2023/02/09 03:00:30;;;;;;;15.37;8.17;;;-5.70;99.90;;;;;;5063515;28;20185;-84
2023/02/09 03:03:02;;;;;;;30.77;13.10;;;-8.20;99.90;;;;;;5055984;28;20177;-85
2023/02/09 03:05:29;;;;;;;16.53;9.57;;;-5.70;99.90;;;;;;5059350;28;20173;-83
2023/02/09 03:07:54;;;;;;;11.57;6.70;;;-8.10;99.90;;;;;;5062171;28;20185;-84
2023/02/09 03:10:27;;;;;;;7.37;4.70;;;-5.10;99.90;;;;;;5029101;28;20193;-83
2023/02/09 03:12:55;;;;;;;9.23;6.37;;;-6.90;99.90;;;;;;5061734;28;20201;-84
2023/02/09 03:15:44;;;;;;;7.80;7.20;;;-8.10;99.90;;;;;;5060689;28;20173;-84
2023/02/09 03:18:21;;;;;;;7.33;5.43;;;-8.00;99.90;;;;;;5042904;28;20210;-84
2023/02/09 03:20:51;;;;;;;13.50;8.63;;;-6.30;99.90;;;;;;5060009;28;20611;-83
2023/02/09 03:23:32;;;;;;;19.30;10.17;;;-7.90;99.90;;;;;;5062988;28;20265;-84
2023/02/09 03:26:02;;;;;;;11.73;7.57;;;-8.00;99.90;;;;;;5062551;28;20220;-84
2023/02/09 03:28:34;;;;;;;6.57;6.00;;;-7.10;99.90;;;;;;5060975;28;20242;-84
2023/02/09 03:31:00;;;;;;;28.40;7.40;;;-7.90;99.90;;;;;;5040608;28;20187;-84
2023/02/09 03:33:29;;;;;;;7.47;6.67;;;-7.90;99.90;;;;;;5028706;28;20230;-86
2023/02/09 03:35:56;;;;;;;9.23;7.03;;;-5.70;99.90;;;;;;5053637;28;20246;-84
2023/02/09 03:38:23;;;;;;;17.30;8.97;;;-6.50;99.90;;;;;;5043326;28;20222;-84
2023/02/09 03:40:48;;;;;;;16.73;8.60;;;-6.20;99.90;;;;;;5018035;28;20553;-84
2023/02/09 03:43:14;;;;;;;11.57;5.63;;;-5.50;99.90;;;;;;5049227;28;20190;-84
2023/02/09 03:45:40;;;;;;;14.73;7.07;;;-7.90;99.90;;;;;;5047825;28;20188;-84
2023/02/09 03:48:06;;;;;;;13.50;9.07;;;-5.70;99.90;;;;;;5053680;28;20237;-84
2023/02/09 03:50:33;;;;;;;8.90;6.93;;;-7.90;99.90;;;;;;5051863;28;20194;-84
2023/02/09 03:52:59;;;;;;;17.93;6.63;;;;;;;;;;5053091;28;20186;-84
2023/02/09 03:55:25;;;;;;;10.93;7.03;;;;;;;;;;5054720;28;20192;-83
2023/02/09 03:57:51;;;;;;;15.03;7.23;;;-7.90;99.90;;;;;;5036100;28;20219;-84
2023/02/09 04:00:17;;;;;;;9.53;4.80;;;-7.90;99.90;;;;;;5046644;28;20194;-85
2023/02/09 04:02:43;;;;;;;7.37;6.67;;;-7.90;99.90;;;;;;5034171;28;20209;-85
2023/02/09 04:05:10;;;;;;;6.57;5.93;;;-7.90;99.90;;;;;;5034547;28;20643;-84
2023/02/09 04:07:36;;;;;;;5.27;4.73;;;-6.20;99.90;;;;;;5046074;28;20197;-84
2023/02/09 04:10:03;;;;;;;10.30;7.30;;;-6.90;99.90;;;;;;5053774;28;20183;-84
2023/02/09 04:12:29;;;;;;;13.97;5.63;;;-7.90;99.90;;;;;;5044190;28;20269;-84
2023/02/09 04:14:55;;;;;;;7.10;6.10;;;-6.30;99.90;;;;;;5045244;28;20274;-84
2023/02/09 04:17:21;;;;;;;5.17;4.77;;;;;;;;;;5053032;28;20644;-85
2023/02/09 04:19:46;;;;;;;3.97;3.70;;;-7.80;99.90;;;;;;5054532;28;20214;-85
2023/02/09 04:22:12;;;;;;;8.53;5.40;;;-6.90;99.90;;;;;;5052548;28;20186;-85
2023/02/09 04:24:38;;;;;;;4.23;3.83;;;-5.60;99.90;;;;;;5053934;28;20230;-84
2023/02/09 04:27:03;;;;;;;5.67;4.07;;;-7.10;99.90;;;;;;5037466;28;20667;-83
2023/02/09 04:29:29;;;;;;;6.57;5.50;;;-7.80;99.90;;;;;;5045143;28;20216;-83
2023/02/09 04:31:55;;;;;;;4.47;4.00;;;-7.80;99.90;;;;;;5052726;28;20189;-83
2023/02/09 04:34:22;;;;;;;6.27;4.70;;;-7.70;99.90;;;;;;5034982;28;20194;-84
2023/02/09 04:36:48;;;;;;;17.27;5.60;;;-6.60;99.90;;;;;;5015234;28;20225;-83
2023/02/09 04:39:14;;;;;;;7.47;5.20;;;-6.40;99.90;;;;;;5052414;28;20252;-83
2023/02/09 04:41:39;;;;;;;11.03;5.97;;;-5.40;99.90;;;;;;5046291;28;20681;-83
2023/02/09 04:44:05;;;;;;;4.77;4.47;;;-7.30;99.90;;;;;;5032782;28;20183;-83
2023/02/09 04:46:31;;;;;;;6.77;4.73;;;-7.60;99.90;;;;;;5022785;28;20206;-84
2023/02/09 04:48:57;;;;;;;3.17;2.93;;;-5.40;99.90;;;;;;5029521;28;20234;-84
2023/02/09 04:51:22;;;;;;;9.03;5.00;;;-5.00;99.90;;;;;;5051915;28;20537;-85
2023/02/09 04:53:48;;;;;;;15.57;7.70;;;-5.10;99.90;;;;;;5045857;28;20279;-85
2023/02/09 04:56:15;;;;;;;4.40;4.10;;;-6.00;99.90;;;;;;5050557;28;20194;-84
2023/02/09 05:01:26;;;;;;;8.20;6.53;;;;;;;;;;5051384;28;20213;-84
2023/02/09 05:03:52;;;;;;;4.87;4.03;;;-6.20;99.90;;;;;;5042638;28;20184;-85
2023/02/09 05:06:19;;;;;;;3.90;3.60;;;-5.40;99.90;;;;;;5051142;28;20330;-84
2023/02/09 05:08:45;;;;;;;15.67;7.60;;;-7.40;99.90;;;;;;5040100;28;20192;-84
2023/02/09 05:11:11;;;;;;;5.67;4.67;;;-6.40;99.90;;;;;;5035136;28;20291;-84
2023/02/09 05:13:37;;;;;;;5.50;5.10;;;-6.10;99.90;;;;;;5035485;28;20182;-84
2023/02/09 05:16:07;;;;;;;6.33;4.87;;;-5.70;99.90;;;;;;5051973;28;20185;-84
2023/02/09 05:18:33;;;;;;;10.73;6.70;;;-7.30;99.90;;;;;;5035584;28;20210;-85
2023/02/09 05:20:58;;;;;;;5.50;4.43;;;-7.30;99.90;;;;;;5034503;28;20733;-84
2023/02/09 05:23:24;;;;;;;7.63;4.53;;;-7.30;99.90;;;;;;5023804;28;20761;-84
2023/02/09 05:25:50;;;;;;;7.33;5.73;;;-7.30;99.90;;;;;;5014740;28;20570;-85
2023/02/09 05:28:15;;;;;;;9.57;6.60;;;-4.90;99.90;;;;;;5031206;28;20537;-85
2023/02/09 05:30:41;;;;;;;6.90;6.10;;;-7.20;99.90;;;;;;5031543;28;20211;-85
2023/02/09 05:33:07;;;;;;;15.77;7.80;;;-6.30;99.90;;;;;;5046340;28;20202;-84
2023/02/09 05:35:32;;;;;;;9.43;5.40;;;-6.20;99.90;;;;;;5044314;28;20243;-84
2023/02/09 05:37:58;;;;;;;11.37;7.00;;;-4.80;99.90;;;;;;5035311;28;20673;-84
2023/02/09 05:40:24;;;;;;;7.97;6.60;;;-4.90;99.90;;;;;;5029275;28;20199;-84
2023/02/09 05:42:49;;;;;;;25.70;7.90;;;-5.80;99.90;;;;;;5042676;28;20340;-84
2023/02/09 05:45:15;;;;;;;10.47;6.33;;;-5.40;99.90;;;;;;5022539;28;20189;-84
2023/02/09 05:47:41;;;;;;;5.70;4.87;;;-5.20;99.90;;;;;;5040885;28;20199;-86
2023/02/09 05:50:07;;;;;;;14.23;6.50;;;-5.60;99.90;;;;;;5040790;28;20198;-84
2023/02/09 05:52:32;;;;;;;13.77;7.50;;;-7.00;99.90;;;;;;5048268;28;20249;-85
2023/02/09 05:54:58;;;;;;;18.10;7.10;;;-7.10;99.90;;;;;;5045938;28;20195;-85
2023/02/09 05:57:24;;;;;;;9.73;5.83;;;-5.40;99.90;;;;;;5038134;28;20195;-84
2023/02/09 05:59:49;;;;;;;7.13;6.33;;;-7.10;99.90;;;;;;5039258;28;20196;-86
2023/02/09 06:02:15;;;;;;;7.73;7.13;;;-6.10;99.90;;;;;;5030646;28;20290;-84
2023/02/09 06:04:40;;;;;;;9.70;7.70;;;-6.80;99.90;;;;;;5031510;28;20539;-85
2023/02/09 06:07:06;;;;;;;25.30;11.50;;;-5.00;99.90;;;;;;5044369;28;20538;-84
2023/02/09 06:09:32;;;;;;;10.20;7.83;;;-7.20;99.90;;;;;;5026023;28;20646;-84
2023/02/09 06:11:57;;;;;;;17.63;6.87;;;-7.30;99.90;;;;;;5043912;28;20302;-84
2023/02/09 06:14:23;;;;;;;18.63;9.90;;;-5.30;99.90;;;;;;5040914;28;20608;-84
2023/02/09 06:16:49;;;;;;;10.43;9.17;;;-5.40;99.90;;;;;;5048777;28;20194;-86
2023/02/09 06:19:18;;;;;;;16.57;7.43;;;-7.30;99.90;;;;;;5014767;28;20234;-85
2023/02/09 06:21:45;;;;;;;6.87;6.20;;;-7.30;99.90;;;;;;5052474;28;20256;-86
2023/02/09 06:24:12;;;;;;;12.50;8.07;;;-7.30;99.90;;;;;;5044079;28;20233;-85
2023/02/09 06:26:38;;;;;;;8.33;7.20;;;-7.40;99.90;;;;;;5027953;28;20194;-84
2023/02/09 06:29:04;;;;;;;31.90;11.67;;;-6.90;99.90;;;;;;5034004;28;20197;-85
2023/02/09 06:31:30;;;;;;;33.10;12.57;;;-6.60;99.90;;;;;;5043363;28;20560;-85
2023/02/09 06:33:56;;;;;;;9.17;8.13;;;-5.30;99.90;;;;;;5016007;28;20196;-86
2023/02/09 06:36:22;;;;;;;26.60;11.40;;;-6.00;99.90;;;;;;5025827;28;20195;-84
2023/02/09 06:38:47;;;;;;;7.77;7.07;;;-7.00;99.90;;;;;;5048442;28;20216;-84
2023/02/09 06:41:13;;;;;;;10.10;7.90;;;-5.40;99.90;;;;;;5053678;28;20187;-84
2023/02/09 06:43:39;;;;;;;7.87;5.87;;;-4.80;99.90;;;;;;5053582;28;20298;-84
2023/02/09 06:46:07;;;;;;;8.67;7.80;;;-7.20;99.90;;;;;;5045640;28;20210;-84
2023/02/09 06:48:32;;;;;;;15.93;10.27;;;-5.20;99.90;;;;;;5042615;28;20227;-85
2023/02/09 06:50:58;;;;;;;19.13;8.90;;;;;;;;;;5044384;28;20225;-84
2023/02/09 06:53:25;;;;;;;14.90;6.17;;;-6.90;99.90;;;;;;5049431;28;20187;-83
2023/02/09 06:55:50;;;;;;;9.83;6.47;;;-6.50;99.90;;;;;;5049096;28;20275;-82
2023/02/09 06:58:16;;;;;;;15.43;7.63;;;-6.60;99.90;;;;;;5050849;28;20296;-83
2023/02/09 07:00:41;;;;;;;9.67;5.93;;;-4.60;99.90;;;;;;5018606;28;20607;-84
2023/02/09 07:03:07;;;;;;;13.63;8.33;;;-6.40;99.90;;;;;;5045598;28;21368;-81
2023/02/09 07:05:33;;;;;;;8.60;7.80;;;-3.90;99.90;;;;;;5044148;28;20211;-84
2023/02/09 07:07:59;;;;;;;10.97;7.20;;;-5.40;99.90;;;;;;5030614;28;20184;-82
2023/02/09 07:10:24;;;;;;;12.90;8.63;;;-5.90;99.90;;;;;;5028941;28;20192;-82
2023/02/09 07:12:50;;;;;;;16.53;7.53;;;-6.30;99.90;;;;;;5047254;28;20211;-82
2023/02/09 07:15:16;;;;;;;9.13;7.17;;;-6.20;99.90;;;;;;5047791;28;20592;-82
2023/02/09 07:17:42;;;;;;;11.90;6.20;;;-6.20;99.90;;;;;;5044360;28;20289;-83
2023/02/09 07:20:09;;;;;;;15.53;7.57;;;-6.10;99.90;;;;;;5045733;28;20201;-83
2023/02/09 07:22:35;;;;;;;17.77;7.87;;;-6.00;99.90;;;;;;5033875;28;20238;-83
2023/02/09 07:25:00;;;;;;;7.97;7.20;;;-5.90;99.90;;;;;;5028178;28;20231;-84
2023/02/09 07:27:26;;;;;;;14.60;10.10;;;-4.90;99.90;;;;;;5047465;28;20191;-83
2023/02/09 07:29:52;;;;;;;9.47;6.37;;;-5.80;99.90;;;;;;5046687;28;20186;-83
2023/02/09 07:32:18;;;;;;;15.27;7.50;;;-4.60;99.90;;;;;;5049296;28;20192;-83
2023/02/09 07:34:43;;;;;;;6.93;6.20;;;-5.70;99.90;;;;;;5047264;28;20185;-83
2023/02/09 07:37:09;;;;;;;9.00;6.57;;;-3.00;99.90;;;;;;5039157;28;20193;-85
2023/02/09 07:39:35;;;;;;;11.50;7.70;;;-3.90;99.90;;;;;;5048530;28;20258;-84
2023/02/09 07:42:00;;;;;;;5.50;4.83;;;-4.00;99.90;;;;;;5037992;28;20200;-85
2023/02/09 07:44:26;;;;;;;16.03;7.47;;;-2.10;99.90;;;;;;5046031;28;20181;-84
2023/02/09 07:46:53;;;;;;;18.23;7.83;;;-5.50;99.90;;;;;;5033020;28;20194;-85
2023/02/09 07:49:19;;;;;;;16.63;7.87;;;-3.50;99.90;;;;;;5043581;28;20215;-86
2023/02/09 07:51:45;;;;;;;7.03;4.83;;;-5.40;99.90;;;;;;5019661;28;20262;-85
2023/02/09 07:54:12;;;;;;;7.17;4.17;;;-5.20;99.90;;;;;;5040470;28;20197;-84
2023/02/09 07:56:39;;;;;;;15.90;5.37;;;-4.70;99.90;;;;;;5032048;28;20654;-85
2023/02/09 07:59:06;;;;;;;9.37;4.83;;;-5.70;99.90;;;;;;5047027;28;20207;-85
2023/02/09 08:01:33;;;;;;;22.20;7.73;;;-5.60;99.90;;;;;;5047568;28;20203;-84
2023/02/09 08:03:59;;;;;;;9.03;6.03;;;-5.60;99.90;;;;;;5050879;28;20649;-84
2023/02/09 08:06:34;;;;;;;7.53;5.80;;;-5.40;99.90;;;;;;5042073;28;20183;-86
2023/02/09 08:09:01;;;;;;;4.73;2.77;;;-5.30;99.90;;;;;;5043669;28;20218;-85
2023/02/09 08:11:44;;;;;;;7.97;5.00;;;-3.30;99.90;;;;;;5035072;28;20177;-86
2023/02/09 08:14:17;;;;;;;6.27;5.70;;;-4.00;99.90;;;;;;5052299;28;20181;-85
2023/02/09 08:16:43;;;;;;;5.00;4.50;;;-3.50;99.90;;;;;;5050994;28;20200;-84
2023/02/09 08:19:18;;;;;;;14.20;4.63;;;-4.70;99.90;;;;;;5042240;28;20290;-85
2023/02/09 08:21:45;;;;;;;3.43;3.23;;;-2.80;99.90;;;;;;5042439;28;20189;-85
2023/02/09 08:24:12;;;;;;;5.73;5.13;;;-3.60;99.90;;;;;;5041345;28;20332;-85
2023/02/09 08:26:39;;;;;;;12.20;5.10;;;-4.40;99.90;;;;;;5042400;28;20217;-85
2023/02/09 08:29:06;;;;;;;7.57;6.70;;;-1.90;99.90;;;;;;5043960;28;20642;-85
2023/02/09 08:31:32;;;;;;;7.77;4.00;;;-4.10;99.90;;;;;;5033236;28;20201;-85
2023/02/09 08:33:57;;;;;;;5.30;4.20;;;-4.00;99.90;;;;;;5047022;28;20533;-86
2023/02/09 08:36:23;;;;;;;5.93;4.60;;;-3.00;99.90;;;;;;5036761;28;20298;-84
2023/02/09 08:38:49;;;;;;;4.60;4.20;;;-4.20;99.90;;;;;;5044499;28;20210;-83
2023/02/09 08:41:16;;;;;;;5.23;4.27;;;-4.20;99.90;;;;;;5043944;28;20196;-84
2023/02/09 08:43:45;;;;;;;6.07;4.70;;;-3.80;99.90;;;;;;5044643;28;20182;-85
2023/02/09 08:46:12;;;;;;;13.70;5.77;;;-3.60;99.90;;;;;;5042443;28;20308;-84
2023/02/09 08:48:39;;;;;;;17.37;6.17;;;-3.80;99.90;;;;;;5036423;28;20191;-84
2023/02/09 08:51:07;;;;;;;8.00;4.53;;;-3.90;99.90;;;;;;5045548;28;20217;-84
2023/02/09 08:53:33;;;;;;;9.30;6.53;;;-3.90;99.90;;;;;;5044509;28;20225;-86
2023/02/09 08:55:59;;;;;;;4.63;3.73;;;-3.70;99.90;;;;;;5041345;28;20172;-85
2023/02/09 08:58:25;;;;;;;5.33;4.20;;;-2.60;99.90;;;;;;5027514;28;20730;-83
2023/02/09 09:00:55;;;;;;;11.73;7.43;;;-3.80;99.90;;;;;;5042580;28;20343;-85
2023/02/09 09:03:26;;;;;;;7.83;4.90;;;-3.50;99.90;;;;;;5046311;28;20198;-85
2023/02/09 09:05:56;;;;;;;8.60;4.10;;;-3.60;99.90;;;;;;5036467;28;20230;-85
2023/02/09 09:08:22;;;;;;;7.93;4.50;;;-2.70;99.90;;;;;;5044517;28;20170;-86
2023/02/09 09:10:48;;;;;;;7.17;6.43;;;;;;;;;;5007385;28;20178;-85
2023/02/09 09:13:14;;;;;;;8.07;5.07;;;-3.30;99.90;;;;;;5035113;28;20179;-85
2023/02/09 09:15:41;;;;;;;14.80;5.93;;;;;;;;;;5035379;28;20536;-84
2023/02/09 09:18:08;;;;;;;6.10;4.00;;;-2.90;99.90;;;;;;5051984;28;20281;-84
2023/02/09 09:20:37;;;;;;;6.43;4.80;;;-2.90;99.90;;;;;;5051882;28;20179;-85
2023/02/09 09:23:02;;;;;;;6.60;5.97;;;-2.80;99.90;;;;;;5035932;28;20174;-84
2023/02/09 09:25:28;;;;;;;13.03;6.40;;;-2.80;99.90;;;;;;5034923;28;20271;-84
2023/02/09 09:27:54;;;;;;;15.67;7.03;;;;;;;;;;5051719;28;20187;-84
2023/02/09 09:30:21;;;;;;;4.97;4.50;;;-2.40;99.90;;;;;;5047115;28;20221;-86
2023/02/09 09:32:46;;;;;;;9.77;5.97;;;-2.40;99.90;;;;;;5043091;28;20198;-85
2023/02/09 09:35:12;;;;;;;17.33;6.90;;;-2.40;99.90;;;;;;5025189;28;20189;-85
2023/02/09 09:37:39;;;;;;;9.37;5.63;;;-2.30;99.90;;;;;;5006490;28;20666;-85
2023/02/09 09:40:05;;;;;;;16.33;6.77;;;-2.20;99.90;;;;;;5050877;28;20188;-85
2023/02/09 09:42:42;;;;;;;8.90;6.00;;;-2.10;99.90;;;;;;5028385;28;20232;-86
2023/02/09 09:45:14;;;;;;;7.33;3.60;;;-2.00;99.90;;;;;;5040847;28;20184;-85
2023/02/09 09:47:42;;;;;;;10.77;5.10;;;-2.10;99.90;;;;;;5040159;28;20200;-85
2023/02/09 09:50:20;;;;;;;13.53;4.30;;;-2.20;99.90;;;;;;5041870;28;20176;-85
2023/02/09 09:52:52;;;;;;;12.20;5.03;;;-2.00;99.90;;;;;;5048683;28;20168;-85
2023/02/09 09:55:27;;;;;;;7.90;5.43;;;-2.20;99.90;;;;;;5047028;28;20231;-89
2023/02/09 09:57:55;;;;;;;3.50;3.20;;;-2.10;99.90;;;;;;5048047;28;20578;-86
2023/02/09 10:00:24;;;;;;;5.30;4.23;;;-1.60;99.90;;;;;;5051655;28;20201;-87
2023/02/09 10:02:50;;;;;;;18.40;5.47;;;-2.20;99.90;;;;;;5035923;28;20184;-86
2023/02/09 10:05:22;;;;;;;7.40;5.00;;;-2.00;99.90;;;;;;5036424;28;20259;-86
2023/02/09 10:08:10;;;;;;;10.27;5.83;;;-1.90;99.90;;;;;;5055816;28;20194;-86
2023/02/09 10:11:12;;;;;;;12.53;7.57;;;-1.50;99.90;;;;;;5052421;28;20210;-86
2023/02/09 10:13:55;;;;;;;5.63;4.07;;;-1.70;99.90;;;;;;5055113;28;20417;-85
2023/02/09 10:16:33;;;;;;;14.27;5.70;;;-1.60;99.90;;;;;;5048147;28;20183;-89
2023/02/09 10:19:01;;;;;;;12.53;5.90;;;-1.60;99.90;;;;;;5044491;28;20210;-86
2023/02/09 10:21:32;;;;;;;6.40;4.87;;;-1.20;99.90;;;;;;5044065;28;20183;-86
2023/02/09 10:24:01;;;;;;;8.97;5.57;;;-0.60;99.90;;;;;;5039288;28;20296;-88
2023/02/09 10:26:33;;;;;;;3.93;3.50;;;-1.10;99.90;;;;;;5054801;28;20253;-87
2023/02/09 10:29:26;;;;;;;9.57;6.07;;;-1.30;99.90;;;;;;5056469;28;20164;-86
2023/02/09 10:31:58;;;;;;;6.97;5.47;;;-1.10;99.90;;;;;;5054606;28;20195;-86
2023/02/09 10:34:32;;;;;;;12.10;6.23;;;-1.00;99.90;;;;;;5054176;28;20191;-86
2023/02/09 10:37:25;;;;;;;3.93;3.07;;;-1.10;99.90;;;;;;5055096;28;20201;-87
2023/02/09 10:40:07;;;;;;;11.03;6.37;;;-1.20;99.90;;;;;;5048270;28;20217;-85
2023/02/09 10:42:36;;;;;;;10.57;4.77;;;-1.20;99.90;;;;;;5053295;28;20233;-85
2023/02/09 10:45:20;;;;;;;13.03;6.93;;;-1.10;99.90;;;;;;5036288;28;20181;-85
2023/02/09 10:48:17;;;;;;;9.40;5.07;;;-1.20;99.90;;;;;;5050653;28;20191;-86
2023/02/09 10:50:58;;;;;;;14.27;5.93;;;-1.10;99.90;;;;;;5054754;28;20182;-86
2023/02/09 10:53:32;;;;;;;8.07;5.27;;;-1.00;99.90;;;;;;5040946;28;20188;-86
2023/02/09 10:56:04;;;;;;;6.77;5.13;;;-0.90;99.90;;;;;;5035036;28;20269;-86
2023/02/09 10:58:35;;;;;;;15.43;5.10;;;-0.80;99.90;;;;;;5035920;28;20207;-86
2023/02/09 11:01:04;;;;;;;13.80;5.70;;;-0.70;99.90;;;;;;5036126;28;20211;-85
2023/02/09 11:03:30;;;;;;;7.77;5.90;;;-0.90;99.90;;;;;;5050320;28;20656;-86
2023/02/09 11:06:12;;;;;;;16.63;4.60;;;-1.00;99.90;;;;;;5049337;28;20188;-86
2023/02/09 11:08:49;;;;;;;8.13;6.37;;;-1.10;99.90;;;;;;5046983;28;20194;-85
2023/02/09 11:11:26;;;;;;;10.47;5.60;;;-1.00;99.90;;;;;;5056074;28;20176;-85
2023/02/09 11:13:52;;;;;;;8.70;5.37;;;-0.90;99.90;;;;;;5053577;28;20195;-85
2023/02/09 11:16:24;;;;;;;9.10;4.87;;;-0.80;99.90;;;;;;5012844;28;20249;-85
2023/02/09 11:19:31;;;;;;;9.67;5.33;;;-0.70;99.90;;;;;;5051797;28;20645;-85
2023/02/09 11:22:16;;;;;;;11.37;4.73;;;-0.60;99.90;;;;;;5032079;28;20198;-86
2023/02/09 11:25:12;;;;;;;11.33;5.97;;;-0.50;99.90;;;;;;5045808;28;20232;-87
2023/02/09 11:27:47;;;;;;;6.60;5.90;;;-0.50;99.90;;;;;;5051005;28;20198;-88
2023/02/09 11:30:29;;;;;;;11.10;6.00;;;-0.50;99.90;;;;;;5054404;28;20270;-86
2023/02/09 11:33:33;;;;;;;10.17;7.10;;;-0.60;99.90;;;;;;5053688;28;20203;-86
2023/02/09 11:36:29;;;;;;;14.77;6.37;;;-0.50;99.90;;;;;;5023030;28;20198;-85
2023/02/09 11:39:08;;;;;;;10.70;6.10;;;-0.80;99.90;;;;;;5054117;28;20211;-86
2023/02/09 11:44:50;;;;;;;17.00;5.70;;;-0.80;99.90;;;;;;5042847;28;20251;-86
2023/02/09 11:47:37;;;;;;;8.63;5.57;;;-0.80;99.90;;;;;;5046748;28;20202;-85
2023/02/09 11:50:07;;;;;;;8.37;5.70;;;-0.80;99.90;;;;;;5047094;28;20588;-85
2023/02/09 11:52:38;;;;;;;12.20;7.20;;;-0.70;99.90;;;;;;5034721;28;20205;-86
2023/02/09 11:55:43;;;;;;;9.67;5.03;;;-0.60;99.90;;;;;;5053420;28;20187;-86
2023/02/09 11:58:29;;;;;;;15.33;6.33;;;-0.50;99.90;;;;;;5036776;28;20200;-85
2023/02/09 12:01:41;;;;;;;8.37;6.53;;;-0.40;99.90;;;;;;5033560;28;20655;-85
2023/02/09 12:04:18;;;;;;;7.60;4.53;;;-0.20;99.90;;;;;;5027430;28;20191;-85
2023/02/09 12:06:50;;;;;;;7.33;4.77;;;0.20;99.90;;;;;;5046599;28;20278;-86
2023/02/09 12:09:40;;;;;;;14.53;7.00;;;0.40;99.90;;;;;;5053681;28;20176;-86
2023/02/09 12:12:11;;;;;;;14.67;6.57;;;0.50;99.90;;;;;;5053456;28;20180;-86
2023/02/09 12:14:58;;;;;;;13.27;6.40;;;0.40;99.90;;;;;;5050635;28;20184;-86
2023/02/09 12:17:45;;;;;;;10.60;7.03;;;0.30;99.90;;;;;;5039737;28;20190;-85
2023/02/09 12:20:28;;;;;;;11.97;6.40;;;0.30;99.90;;;;;;5044824;28;20204;-86
2023/02/09 12:23:16;;;;;;;13.63;5.60;;;0.10;99.90;;;;;;5048531;28;20192;-86
2023/02/09 12:26:00;;;;;;;16.60;6.97;;;0.30;99.90;;;;;;5033320;28;20278;-87
2023/02/09 12:28:26;;;;;;;23.53;7.70;;;0.40;99.90;;;;;;5035460;28;20196;-85
2023/02/09 12:30:51;;;;;;;17.50;6.17;;;0.50;99.90;;;;;;5033331;28;20189;-84
2023/02/09 12:33:23;;;;;;;11.83;6.60;;;0.30;99.90;;;;;;5033073;28;20654;-84
2023/02/09 12:36:03;;;;;;;16.63;7.87;;;0.30;99.90;;;;;;5046706;28;20193;-84
2023/02/09 12:38:57;;;;;;;15.67;8.77;;;0.30;99.90;;;;;;5049644;28;20235;-84
2023/02/09 12:41:27;;;;;;;4.83;4.37;;;0.30;99.90;;;;;;5049803;28;20230;-84
2023/02/09 12:44:25;;;;;;;8.63;6.40;;;0.20;99.90;;;;;;5032642;28;20202;-83
2023/02/09 12:46:54;;;;;;;10.47;7.27;;;0.20;99.90;;;;;;5032642;28;20215;-84
2023/02/09 12:49:26;;;;;;;21.53;10.23;;;0.10;99.90;;;;;;5032711;28;20278;-85
2023/02/09 12:51:51;;;;;;;17.43;8.67;;;-0.10;99.90;;;;;;5049321;28;20188;-86
2023/02/09 12:54:42;;;;;;;14.73;6.93;;;-0.20;99.90;;;;;;5049227;28;20276;-85
2023/02/09 12:57:13;;;;;;;13.03;7.83;;;-0.20;99.90;;;;;;5049233;28;20194;-84
2023/02/09 12:59:48;;;;;;;14.37;7.17;;;0.00;99.90;;;;;;5048918;28;20219;-89
2023/02/09 13:02:22;;;;;;;17.40;6.57;;;0.00;99.90;;;;;;5049568;28;20195;-84
2023/02/09 13:04:57;;;;;;;11.50;7.53;;;0.10;99.90;;;;;;5049102;28;20180;-85
2023/02/09 13:07:32;;;;;;;17.90;6.33;;;0.20;99.90;;;;;;5049461;28;20203;-84